Cala Pula — IBID — position and weather

sailwx.info

Track history (hours):
 
Tides and Currents Weather Stations Pressure Air Temp Water Temp Dewpoint Dewpoint Depression Visibility Wind Speed Wind Dir Waves Ship Positions

Cala Pula

Last reported at 2014-Nov-27 07:31 UTC. Time now 2014-Nov-27 09:24 UTC.
Position N 44°16' E 008°27'.

Length 189 m; draft 8 m.

Type: Cargo ship. MMSI: 247585000.

Date/timePositionNaut miles runAvg speedWind from/ knotsBaromVisibWave heightAir tempDewpointWater temp
2014-Nov-27 07:31N 44°16' E 008°27'0 0.0
2014-Nov-27 04:16N 44°16' E 008°27'0 0.0
2014-Nov-27 03:16N 44°16' E 008°27'0 0.0
2014-Nov-27 02:33N 44°16' E 008°27'0 0.0
2014-Nov-27 01:33N 44°16' E 008°27'3 3.0
2014-Nov-27 00:31N 44°14' E 008°31'7715.3
2014-Nov-26 19:28N 43°19' E 007°15'1617.3
2014-Nov-26 18:33N 43°10' E 006°58'1717.4
2014-Nov-26 17:33N 42°59' E 006°39'1716.9
2014-Nov-26 16:32N 42°52' E 006°17'1717.0
2014-Nov-26 15:32N 42°48' E 005°55'7717.9
2014-Nov-26 11:12N 42°03' E 004°29'1219.1
2014-Nov-26 10:33N 41°57' E 004°14'2118.8
2014-Nov-26 09:27N 41°48' E 003°50'1818.6
2014-Nov-26 08:30N 41°39' E 003°29'2518.1
2014-Nov-26 07:05N 41°27' E 002°59'50811.4
2014-Nov-24 10:31N 35°59' W 005°18'  
Track history (hours):
 
Tides and Currents Weather Stations Pressure Air Temp Water Temp Dewpoint Dewpoint Depression Visibility Wind Speed Wind Dir Waves Ship Positions

Cala Pula

Last reported at 2014-Nov-27 07:31 UTC. Time now 2014-Nov-27 09:24 UTC.
Position N 44°16' E 008°27'.

Length 189 m; draft 8 m.

Type: Cargo ship. MMSI: 247585000.

Date/timePositionNaut miles runAvg speedWind from/ knotsBaromVisibWave heightAir tempDewpointWater temp
2014-Nov-27 07:31N 44°16' E 008°27'0 0.0
2014-Nov-27 04:16N 44°16' E 008°27'0 0.0
2014-Nov-27 03:16N 44°16' E 008°27'0 0.0
2014-Nov-27 02:33N 44°16' E 008°27'0 0.0
2014-Nov-27 01:33N 44°16' E 008°27'3 3.0
2014-Nov-27 00:31N 44°14' E 008°31'7715.3
2014-Nov-26 19:28N 43°19' E 007°15'1617.3
2014-Nov-26 18:33N 43°10' E 006°58'1717.4
2014-Nov-26 17:33N 42°59' E 006°39'1716.9
2014-Nov-26 16:32N 42°52' E 006°17'1717.0
2014-Nov-26 15:32N 42°48' E 005°55'7717.9
2014-Nov-26 11:12N 42°03' E 004°29'1219.1
2014-Nov-26 10:33N 41°57' E 004°14'2118.8
2014-Nov-26 09:27N 41°48' E 003°50'1818.6
2014-Nov-26 08:30N 41°39' E 003°29'2518.1
2014-Nov-26 07:05N 41°27' E 002°59'50811.4
2014-Nov-24 10:31N 35°59' W 005°18'  

Dump ship's entire track history